Spurfield, Canada
Current Conditions -  °F | °C
As of 10:10 PM on Friday 28 Nov 2014 (Local Time) from CYZH Reporting Station
Few Clouds Few Clouds  
Wind Chill: -31°   Ceiling: Unl
Heat Index: -11°   Visibility: 8mi
Dew Point: -17°   Wind: 12mph
Humidity: 77%   Direction: 270°W
Pressure: 29.96"   Gusts: NA
Location:  55.23°N, 114.25°W
Report Text: CYZH 290510Z AUTO 27010KT 8SM FEW039 M24/M27 A2996 RMK SLP208
Loading
Personal Weather Stations






























Interactive Weather Map New forecast layout! Learn more

10-Day Weather Forecast

Advertisements
Track Severe Weather on mobile